Time;durP1;ratioP1;P1;durP2;ratioP2;P2;SDS_P1;SDS_P2;PMS_P1;PMS_P2;Temp;Humidity;BMP_temperature;BMP_pressure;BME280_temperature;BME280_humidity;BME280_pressure;Samples;Min_cycle;Max_cycle;Signal;HPM_P1;HPM_P2
2021/03/08 00:00:26;;;;;;;28.60;18.98;;;3.40;98.10;;;;;;6139444;28;20042;-87
2021/03/08 00:03:27;;;;;;;26.63;17.88;;;3.30;98.70;;;;;;6155838;28;20027;-90
2021/03/08 00:06:27;;;;;;;28.15;17.70;;;3.00;99.90;;;;;;6139830;28;20054;-87
2021/03/08 00:09:29;;;;;;;26.00;17.30;;;;;;;;;;6139810;28;20038;-86
2021/03/08 00:12:30;;;;;;;30.35;18.73;;;2.90;99.90;;;;;;6139349;28;20019;-89
2021/03/08 00:15:31;;;;;;;29.40;18.63;;;;;;;;;;6139869;28;20109;-91
2021/03/08 00:18:32;;;;;;;26.95;18.40;;;;;;;;;;6139378;28;20618;-87
2021/03/08 00:21:33;;;;;;;24.83;17.02;;;;;;;;;;6139850;28;20053;-87
2021/03/08 00:24:33;;;;;;;29.05;18.45;;;3.00;97.10;;;;;;6155120;28;20134;-86
2021/03/08 00:27:34;;;;;;;25.92;15.75;;;2.70;99.90;;;;;;6122754;28;20027;-87
2021/03/08 00:30:35;;;;;;;28.27;16.83;;;2.70;99.90;;;;;;6123551;28;20390;-87
2021/03/08 00:33:36;;;;;;;23.70;15.88;;;;;;;;;;6123435;28;20035;-87
2021/03/08 00:36:36;;;;;;;27.83;16.83;;;2.70;96.70;;;;;;6139069;28;20384;-87
2021/03/08 00:39:37;;;;;;;25.25;16.80;;;2.30;99.90;;;;;;6136377;28;20043;-86
2021/03/08 00:42:38;;;;;;;24.40;16.17;;;2.40;97.50;;;;;;6121872;28;20023;-87
2021/03/08 00:45:41;;;;;;;23.08;16.52;;;2.40;99.90;;;;;;6138316;28;20034;-89
2021/03/08 00:48:42;;;;;;;25.25;16.23;;;;;;;;;;6122726;28;20054;-86
2021/03/08 00:51:42;;;;;;;27.67;17.17;;;2.30;97.20;;;;;;6138679;28;20037;-87
2021/03/08 00:54:43;;;;;;;31.17;17.85;;;;;;;;;;6122233;28;20453;-93
2021/03/08 00:57:45;;;;;;;26.13;16.33;;;;;;;;;;6138334;28;20104;-90
2021/03/08 01:00:46;;;;;;;25.35;16.55;;;;;;;;;;6138277;28;20031;-88
2021/03/08 01:03:47;;;;;;;24.70;15.70;;;;;;;;;;6138642;28;20136;-89
2021/03/08 01:06:48;;;;;;;27.50;17.30;;;;;;;;;;6137636;28;20510;-89
2021/03/08 01:09:49;;;;;;;25.15;16.25;;;2.00;97.10;;;;;;6138633;28;20593;-88
2021/03/08 01:12:50;;;;;;;23.95;16.05;;;;;;;;;;6122269;28;20037;-89
2021/03/08 01:15:51;;;;;;;23.20;15.60;;;;;;;;;;6137584;28;20058;-90
2021/03/08 01:18:52;;;;;;;24.00;15.85;;;;;;;;;;6137894;28;20073;-88
2021/03/08 01:21:52;;;;;;;25.75;15.43;;;1.80;99.90;;;;;;6137995;28;20042;-89
2021/03/08 01:24:53;;;;;;;27.52;16.83;;;2.30;99.70;;;;;;6130233;28;20027;-89
2021/03/08 01:27:54;;;;;;;27.00;16.50;;;1.80;99.90;;;;;;6131050;28;20027;-88
2021/03/08 01:30:55;;;;;;;28.50;16.85;;;1.90;99.80;;;;;;6138152;28;20381;-88
2021/03/08 01:33:56;;;;;;;28.42;18.35;;;;;;;;;;6122119;28;20027;-90
2021/03/08 01:36:57;;;;;;;23.10;16.05;;;;;;;;;;6153275;28;20130;-88
2021/03/08 01:39:58;;;;;;;25.55;16.00;;;;;;;;;;6137898;28;20433;-88
2021/03/08 01:42:59;;;;;;;24.98;16.77;;;;;;;;;;6138174;28;20027;-88
2021/03/08 01:46:00;;;;;;;24.02;16.25;;;1.90;97.00;;;;;;6137639;28;20034;-88
2021/03/08 01:49:01;;;;;;;25.98;17.85;;;;;;;;;;6121460;28;20145;-89
2021/03/08 01:52:02;;;;;;;28.02;17.95;;;;;;;;;;6144171;28;20035;-92
2021/03/08 01:55:03;;;;;;;27.58;17.33;;;1.60;97.30;;;;;;6140778;28;20105;-88
2021/03/08 01:58:04;;;;;;;28.55;16.83;;;;;;;;;;6141322;28;20058;-88
2021/03/08 02:01:05;;;;;;;27.95;16.52;;;;;;;;;;6141743;28;20053;-88
2021/03/08 02:04:06;;;;;;;27.23;16.95;;;1.50;99.90;;;;;;6141625;28;20035;-89
2021/03/08 02:07:06;;;;;;;26.25;16.88;;;1.80;99.70;;;;;;6155673;28;20038;-92
2021/03/08 02:10:11;;;;;;;22.63;14.90;;;1.50;99.90;;;;;;6126152;28;20034;-88
2021/03/08 02:13:27;;;;;;;24.27;15.93;;;1.50;99.00;;;;;;6126086;28;20023;-91
2021/03/08 02:17:01;;;;;;;23.92;15.05;;;1.50;98.10;;;;;;6157840;28;20425;-89
2021/03/08 02:20:35;;;;;;;26.67;16.63;;;1.80;97.70;;;;;;6141818;28;20490;-88
2021/03/08 02:23:48;;;;;;;28.77;17.33;;;1.20;98.20;;;;;;6143189;28;20045;-88
2021/03/08 02:27:05;;;;;;;25.85;16.08;;;1.10;99.90;;;;;;6142706;28;20035;-88
2021/03/08 02:30:39;;;;;;;22.73;15.05;;;1.20;97.50;;;;;;6142110;28;20166;-92
2021/03/08 02:33:40;;;;;;;23.08;15.90;;;;;;;;;;6143064;28;20031;-90
2021/03/08 02:36:46;;;;;;;23.10;15.65;;;0.90;99.90;;;;;;6143102;28;20578;-87
2021/03/08 02:39:49;;;;;;;24.20;15.80;;;0.90;99.70;;;;;;6135632;28;20062;-88
2021/03/08 02:42:53;;;;;;;26.90;15.82;;;1.10;99.90;;;;;;6127893;28;20118;-88
2021/03/08 02:45:54;;;;;;;28.35;16.27;;;;;;;;;;6160040;28;20113;-89
2021/03/08 02:48:55;;;;;;;23.45;15.38;;;;;;;;;;6152538;28;20046;-88
2021/03/08 02:52:04;;;;;;;29.40;15.68;;;0.60;99.20;;;;;;6145590;28;20019;-87
2021/03/08 02:55:06;;;;;;;27.85;15.60;;;0.50;99.90;;;;;;6143696;28;20053;-87
2021/03/08 02:58:08;;;;;;;21.67;14.70;;;0.50;99.60;;;;;;6143639;28;20039;-88
2021/03/08 03:01:09;;;;;;;24.65;15.40;;;;;;;;;;6127897;28;20094;-87
2021/03/08 03:04:10;;;;;;;25.05;15.85;;;;;;;;;;6135754;28;20477;-88
2021/03/08 03:07:11;;;;;;;24.83;15.88;;;;;;;;;;6142527;28;20023;-87
2021/03/08 03:10:12;;;;;;;27.30;16.92;;;0.60;99.90;;;;;;6148935;28;20034;-88
2021/03/08 03:13:13;;;;;;;25.85;16.30;;;0.70;99.90;;;;;;6143650;28;20039;-88
2021/03/08 03:16:14;;;;;;;25.77;16.38;;;;;;;;;;6127146;28;20031;-88
2021/03/08 03:19:16;;;;;;;34.53;17.88;;;0.80;99.90;;;;;;6142491;28;20042;-89
2021/03/08 03:22:21;;;;;;;27.52;16.30;;;0.80;99.90;;;;;;6141711;28;20390;-88
2021/03/08 03:25:24;;;;;;;24.58;15.52;;;0.70;99.90;;;;;;6142459;28;20031;-87
2021/03/08 03:28:25;;;;;;;23.25;15.50;;;;;;;;;;6126036;28;20031;-87
2021/03/08 03:31:25;;;;;;;23.38;15.77;;;0.80;99.90;;;;;;6140956;28;20038;-88
2021/03/08 03:34:26;;;;;;;26.15;16.27;;;0.90;99.90;;;;;;6133237;28;20045;-87
2021/03/08 03:37:27;;;;;;;24.95;16.58;;;0.60;99.90;;;;;;6125880;28;20073;-93
2021/03/08 03:40:28;;;;;;;24.23;15.38;;;0.70;99.90;;;;;;6125628;28;20039;-89
2021/03/08 03:43:29;;;;;;;29.35;17.77;;;;;;;;;;6126511;28;20038;-88
2021/03/08 03:46:29;;;;;;;28.05;17.70;;;0.60;99.90;;;;;;6141995;28;20069;-87
2021/03/08 03:49:30;;;;;;;25.50;16.95;;;0.60;99.90;;;;;;6131080;28;20493;-88
2021/03/08 03:52:30;;;;;;;28.05;17.55;;;0.60;99.90;;;;;;6136947;28;20073;-88
2021/03/08 03:55:31;;;;;;;25.95;16.05;;;0.60;99.90;;;;;;6127168;28;20102;-89
2021/03/08 03:58:39;;;;;;;27.15;16.30;;;0.50;99.90;;;;;;6141617;28;20049;-89
2021/03/08 04:01:43;;;;;;;27.33;15.70;;;0.40;99.90;;;;;;6136104;28;20421;-89
2021/03/08 04:04:54;;;;;;;24.17;16.50;;;0.30;99.90;;;;;;6126903;28;20034;-87
2021/03/08 04:07:55;;;;;;;27.75;15.85;;;0.20;99.90;;;;;;6126583;28;20473;-88
2021/03/08 04:10:57;;;;;;;26.27;15.05;;;0.30;99.90;;;;;;6133779;28;20031;-88
2021/03/08 04:13:59;;;;;;;23.17;14.98;;;0.20;99.90;;;;;;6142644;28;20358;-87
2021/03/08 04:16:59;;;;;;;22.88;16.33;;;0.50;99.90;;;;;;6125586;28;20034;-88
2021/03/08 04:20:00;;;;;;;28.75;16.08;;;;;;;;;;6129130;28;20105;-89
2021/03/08 04:23:06;;;;;;;27.77;18.08;;;0.30;99.90;;;;;;6140860;28;20027;-87
2021/03/08 04:26:07;;;;;;;29.10;18.45;;;;;;;;;;6142098;28;20029;-90
2021/03/08 04:29:08;;;;;;;31.33;18.60;;;;;;;;;;6140898;28;20082;-89
2021/03/08 04:32:09;;;;;;;31.63;16.90;;;-0.10;99.90;;;;;;6140222;28;20033;-87
2021/03/08 04:35:10;;;;;;;51.40;26.83;;;1.20;99.90;;;;;;6141450;28;20031;-90
2021/03/08 04:38:11;;;;;;;30.98;18.05;;;-0.10;99.90;;;;;;6124469;28;20768;-86
2021/03/08 04:41:12;;;;;;;26.77;16.85;;;-0.20;99.90;;;;;;6133060;28;20038;-88
2021/03/08 04:44:12;;;;;;;61.55;32.03;;;-0.30;99.90;;;;;;6139925;28;20485;-88
2021/03/08 04:47:16;;;;;;;37.33;21.35;;;-0.40;99.90;;;;;;6123352;28;20061;-89
2021/03/08 04:50:17;;;;;;;29.30;18.42;;;-0.40;99.90;;;;;;6122580;28;20089;-88
2021/03/08 04:53:17;;;;;;;41.13;24.10;;;-0.40;99.90;;;;;;6127014;28;20052;-92
2021/03/08 04:56:18;;;;;;;43.53;26.23;;;;;;;;;;6123012;28;20061;-89
2021/03/08 04:59:19;;;;;;;77.63;42.55;;;-0.20;99.90;;;;;;6138968;28;20030;-91
2021/03/08 05:02:20;;;;;;;32.80;19.10;;;-0.30;99.90;;;;;;6139133;28;20041;-90
2021/03/08 05:05:22;;;;;;;26.85;16.48;;;-0.40;99.90;;;;;;6123417;28;20041;-88
2021/03/08 05:08:24;;;;;;;28.42;16.75;;;0.00;99.90;;;;;;6125356;28;20075;-89
2021/03/08 05:11:24;;;;;;;29.63;17.63;;;-0.40;99.90;;;;;;6122607;28;20034;-88
2021/03/08 05:14:25;;;;;;;29.15;17.15;;;;;;;;;;6127263;28;20038;-89
2021/03/08 05:17:26;;;;;;;26.02;17.08;;;-0.40;99.90;;;;;;6138438;28;20050;-92
2021/03/08 05:20:27;;;;;;;26.95;15.80;;;;;;;;;;6128874;28;20038;-89
2021/03/08 05:23:29;;;;;;;25.15;16.63;;;-0.60;99.90;;;;;;6138147;28;20098;-87
2021/03/08 05:26:30;;;;;;;32.00;17.48;;;;;;;;;;6138420;28;20478;-90
2021/03/08 05:29:31;;;;;;;26.85;16.85;;;;;;;;;;6133819;28;20022;-90
2021/03/08 05:32:41;;;;;;;37.78;19.50;;;-0.80;99.90;;;;;;6143006;28;20058;-88
2021/03/08 05:35:42;;;;;;;30.88;18.10;;;;;;;;;;6142917;28;20031;-87
2021/03/08 05:38:44;;;;;;;32.45;18.75;;;-0.70;99.90;;;;;;6141818;28;20065;-88
2021/03/08 05:41:55;;;;;;;28.20;17.07;;;-0.80;99.90;;;;;;6135755;28;20066;-90
2021/03/08 05:45:06;;;;;;;25.27;15.98;;;-0.70;99.90;;;;;;6133041;28;20030;-87
2021/03/08 05:48:44;;;;;;;30.17;17.23;;;-0.80;99.90;;;;;;6127065;28;20027;-88
2021/03/08 05:52:03;;;;;;;28.60;16.95;;;-0.60;99.90;;;;;;6158531;28;20436;-85
2021/03/08 05:55:07;;;;;;;31.30;18.33;;;0.00;99.90;;;;;;6141625;28;20090;-85
2021/03/08 05:58:18;;;;;;;32.22;19.95;;;-0.50;99.90;;;;;;6157859;28;20031;-86
2021/03/08 06:01:38;;;;;;;46.50;24.40;;;0.00;99.90;;;;;;6139291;28;20062;-85
2021/03/08 06:05:07;;;;;;;38.22;21.75;;;-0.80;99.90;;;;;;6141053;28;20042;-89
2021/03/08 06:08:40;;;;;;;35.45;18.73;;;-0.60;99.90;;;;;;6175120;28;20397;-87
2021/03/08 06:11:42;;;;;;;28.58;16.58;;;-0.60;99.90;;;;;;6132867;28;20025;-89
2021/03/08 06:14:45;;;;;;;29.30;16.63;;;-0.40;99.90;;;;;;6135038;28;20035;-87
2021/03/08 06:17:49;;;;;;;27.33;17.23;;;;;;;;;;6126084;28;20657;-92
2021/03/08 06:20:55;;;;;;;28.10;16.30;;;;;;;;;;6143964;28;20027;-87
2021/03/08 06:23:56;;;;;;;27.95;17.30;;;;;;;;;;6142529;28;20035;-89
2021/03/08 06:26:57;;;;;;;30.30;18.10;;;;;;;;;;6142644;28;20030;-89
2021/03/08 06:29:58;;;;;;;26.88;16.65;;;;;;;;;;6142238;28;20038;-89
2021/03/08 06:32:59;;;;;;;27.58;16.73;;;;;;;;;;6142692;28;20073;-89
2021/03/08 06:36:01;;;;;;;28.98;15.80;;;;;;;;;;6157626;28;20030;-89
2021/03/08 06:39:01;;;;;;;22.90;15.48;;;1.00;99.90;;;;;;6148509;28;20450;-86
2021/03/08 06:42:03;;;;;;;29.88;17.95;;;1.50;99.90;;;;;;6124675;28;20053;-90
2021/03/08 06:45:06;;;;;;;25.95;17.35;;;1.50;99.90;;;;;;6141720;28;20037;-88
2021/03/08 06:48:07;;;;;;;27.25;18.58;;;1.40;99.90;;;;;;6127120;28;20149;-87
2021/03/08 06:51:12;;;;;;;26.80;18.67;;;1.30;99.90;;;;;;6124742;28;20077;-85
2021/03/08 06:54:17;;;;;;;33.85;19.52;;;1.00;99.90;;;;;;6124404;28;20433;-85
2021/03/08 06:57:28;;;;;;;27.27;18.33;;;2.30;99.90;;;;;;6139541;28;20114;-87
2021/03/08 07:00:31;;;;;;;27.98;19.70;;;2.50;99.90;;;;;;6148670;28;20087;-84
2021/03/08 07:03:33;;;;;;;27.42;18.98;;;;;;;;;;6129938;28;20442;-84
2021/03/08 07:06:34;;;;;;;27.95;19.25;;;;;;;;;;6156408;28;20030;-86
2021/03/08 07:09:41;;;;;;;26.77;18.65;;;;;;;;;;6139493;28;20027;-85
2021/03/08 07:12:49;;;;;;;27.67;19.02;;;3.50;91.00;;;;;;6139975;28;20031;-84
2021/03/08 07:15:54;;;;;;;29.35;20.13;;;4.30;90.00;;;;;;6137746;28;20085;-84
2021/03/08 07:18:58;;;;;;;26.02;19.48;;;4.60;85.70;;;;;;6153764;28;20125;-85
2021/03/08 07:21:58;;;;;;;28.27;19.23;;;4.70;87.30;;;;;;6121769;28;20049;-83
2021/03/08 07:24:59;;;;;;;26.65;19.35;;;6.40;94.80;;;;;;6121184;28;20035;-82
2021/03/08 07:28:01;;;;;;;25.17;19.10;;;5.10;92.20;;;;;;6138485;28;20085;-84
2021/03/08 07:31:02;;;;;;;28.63;19.13;;;5.30;81.00;;;;;;6138386;28;20037;-83
2021/03/08 07:34:03;;;;;;;26.98;18.60;;;5.50;79.20;;;;;;6145398;28;20215;-82
2021/03/08 07:37:04;;;;;;;26.73;19.00;;;5.60;92.10;;;;;;6138175;28;20266;-83
2021/03/08 07:40:05;;;;;;;28.27;18.88;;;6.40;79.90;;;;;;6151120;28;20035;-83
2021/03/08 07:43:06;;;;;;;26.40;19.00;;;5.60;77.80;;;;;;6138404;28;20041;-87
2021/03/08 07:46:25;;;;;;;24.67;18.55;;;5.90;76.80;;;;;;6138430;28;20035;-83
2021/03/08 07:49:36;;;;;;;24.83;18.95;;;6.70;76.40;;;;;;6138302;28;20054;-82
2021/03/08 07:52:37;;;;;;;30.40;19.25;;;6.40;90.00;;;;;;6138339;28;20381;-84
2021/03/08 07:55:37;;;;;;;29.13;20.38;;;6.50;73.60;;;;;;6138631;28;20031;-83
2021/03/08 07:58:38;;;;;;;26.00;19.73;;;6.80;89.10;;;;;;6138417;28;20065;-84
2021/03/08 08:01:39;;;;;;;25.00;19.40;;;;;;;;;;6138349;28;20038;-82
2021/03/08 08:04:40;;;;;;;27.02;20.02;;;7.00;69.10;;;;;;6137129;28;20397;-87
2021/03/08 08:07:41;;;;;;;25.80;19.08;;;7.20;73.20;;;;;;6123161;28;20081;-84
2021/03/08 08:10:42;;;;;;;28.08;19.77;;;7.20;74.60;;;;;;6121355;28;20133;-84
2021/03/08 08:13:52;;;;;;;24.15;19.20;;;7.70;90.90;;;;;;6129081;28;20496;-84
2021/03/08 08:16:53;;;;;;;24.77;18.77;;;7.90;90.70;;;;;;6138225;28;20090;-84
2021/03/08 08:19:54;;;;;;;25.15;19.27;;;;;;;;;;6121755;28;20038;-85
2021/03/08 08:22:59;;;;;;;29.00;18.98;;;8.00;68.20;;;;;;6138301;28;20041;-89
2021/03/08 08:26:00;;;;;;;25.98;19.05;;;8.90;73.30;;;;;;6128233;28;20030;-85
2021/03/08 08:29:00;;;;;;;26.65;20.23;;;8.40;72.80;;;;;;6132873;28;20377;-87
2021/03/08 08:32:02;;;;;;;24.30;18.65;;;8.40;71.00;;;;;;6128844;28;20117;-85
2021/03/08 08:35:20;;;;;;;26.80;18.42;;;8.60;83.80;;;;;;6122546;28;20031;-84
2021/03/08 08:38:22;;;;;;;25.35;18.55;;;;;;;;;;6122966;28;20086;-85
2021/03/08 08:41:30;;;;;;;23.73;17.58;;;8.80;79.80;;;;;;6137657;28;20038;-84
2021/03/08 08:44:31;;;;;;;25.00;18.63;;;;;;;;;;6137755;28;20416;-84
2021/03/08 08:47:33;;;;;;;23.95;18.75;;;9.20;80.10;;;;;;6152769;28;20023;-89
2021/03/08 08:50:50;;;;;;;22.48;17.40;;;9.60;76.50;;;;;;6136403;28;20055;-85
2021/03/08 08:53:51;;;;;;;23.80;18.23;;;9.80;84.90;;;;;;6135428;28;20118;-84
2021/03/08 08:56:52;;;;;;;24.10;18.20;;;;;;;;;;6136074;28;20031;-83
2021/03/08 09:00:13;;;;;;;25.88;18.33;;;10.50;79.20;;;;;;6151743;28;20043;-82
2021/03/08 09:03:17;;;;;;;23.00;19.40;;;11.20;70.70;;;;;;6135092;28;20392;-88
2021/03/08 09:06:38;;;;;;;22.25;17.88;;;10.90;73.80;;;;;;6121742;28;20074;-84
2021/03/08 09:09:39;;;;;;;22.13;18.90;;;11.10;61.50;;;;;;6137243;28;20031;-84
2021/03/08 09:12:40;;;;;;;27.05;16.77;;;11.30;60.00;;;;;;6153274;28;20035;-83
2021/03/08 09:15:41;;;;;;;21.07;17.80;;;12.10;67.00;;;;;;6137359;28;20513;-88
2021/03/08 09:18:42;;;;;;;23.80;18.25;;;;;;;;;;6149299;28;20039;-85
2021/03/08 09:21:43;;;;;;;23.83;18.70;;;12.60;53.30;;;;;;6153121;28;20033;-85
2021/03/08 09:24:43;;;;;;;23.92;19.60;;;13.00;71.30;;;;;;6118178;28;20500;-85
2021/03/08 09:27:45;;;;;;;23.80;18.55;;;12.90;55.40;;;;;;6125883;28;20035;-85
2021/03/08 09:30:48;;;;;;;21.70;19.13;;;12.90;56.20;;;;;;6136752;28;20113;-85
2021/03/08 09:33:48;;;;;;;24.42;19.35;;;12.90;54.30;;;;;;6120382;28;20034;-84
2021/03/08 09:36:49;;;;;;;27.13;19.65;;;12.90;55.20;;;;;;6138038;28;20031;-85
2021/03/08 09:39:51;;;;;;;22.95;19.13;;;13.00;54.70;;;;;;6127159;28;20444;-84
2021/03/08 09:42:51;;;;;;;25.27;20.05;;;13.10;54.00;;;;;;6122595;28;20029;-87
2021/03/08 09:46:06;;;;;;;26.00;20.92;;;13.00;54.40;;;;;;6129947;28;20026;-84
2021/03/08 09:49:07;;;;;;;22.65;18.88;;;13.00;67.90;;;;;;6115201;29;20059;-84
2021/03/08 09:52:07;;;;;;;22.60;18.77;;;13.00;55.30;;;;;;6120575;29;20031;-85
2021/03/08 09:55:15;;;;;;;21.90;18.70;;;13.00;54.80;;;;;;6113115;29;20375;-87
2021/03/08 09:58:19;;;;;;;26.33;19.88;;;12.90;51.10;;;;;;6102403;29;20043;-88
2021/03/08 10:01:21;;;;;;;23.88;19.60;;;13.20;54.10;;;;;;6103403;28;20079;-86
2021/03/08 10:04:21;;;;;;;21.77;18.50;;;12.60;72.80;;;;;;6111885;29;20035;-86
2021/03/08 10:07:23;;;;;;;26.80;19.38;;;12.50;55.30;;;;;;6119778;29;20035;-85
2021/03/08 10:10:24;;;;;;;22.33;18.23;;;12.40;81.40;;;;;;6112688;28;20430;-86
2021/03/08 10:13:25;;;;;;;22.93;18.20;;;12.80;72.80;;;;;;6113649;28;20042;-87
2021/03/08 10:16:29;;;;;;;27.90;18.27;;;13.00;83.80;;;;;;6118519;29;20434;-85
2021/03/08 10:19:30;;;;;;;21.33;18.17;;;;;;;;;;6125929;29;20043;-85
2021/03/08 10:22:38;;;;;;;25.05;19.05;;;13.20;68.80;;;;;;6141136;28;20034;-85
2021/03/08 10:25:39;;;;;;;24.02;19.50;;;;;;;;;;6134054;29;20131;-86
2021/03/08 10:28:40;;;;;;;22.90;18.77;;;13.80;67.00;;;;;;6132767;29;20035;-86
2021/03/08 10:31:41;;;;;;;22.05;17.15;;;;;;;;;;6102427;29;20102;-87
2021/03/08 10:34:42;;;;;;;20.63;17.70;;;;;;;;;;6133259;29;20032;-89
2021/03/08 10:37:43;;;;;;;21.08;17.58;;;;;;;;;;6140883;29;20031;-86
2021/03/08 10:40:44;;;;;;;21.55;18.63;;;13.60;65.00;;;;;;6141926;29;20493;-91
2021/03/08 10:43:45;;;;;;;21.15;17.60;;;13.70;58.70;;;;;;6126713;29;20047;-86
2021/03/08 10:46:45;;;;;;;23.08;17.80;;;13.60;55.20;;;;;;6111930;29;20028;-85
2021/03/08 10:49:49;;;;;;;21.13;17.95;;;13.80;55.60;;;;;;6129660;29;20059;-87
2021/03/08 10:53:04;;;;;;;20.52;18.27;;;14.10;53.80;;;;;;6116987;29;20055;-87
2021/03/08 10:56:19;;;;;;;20.35;17.35;;;14.10;54.70;;;;;;6110274;29;20069;-86
2021/03/08 10:59:23;;;;;;;23.77;18.42;;;14.00;51.80;;;;;;6118184;29;20367;-85
2021/03/08 11:02:24;;;;;;;20.98;17.98;;;14.10;52.60;;;;;;6131505;29;20038;-85
2021/03/08 11:05:25;;;;;;;24.42;18.65;;;;;;;;;;6114922;29;20434;-87
2021/03/08 11:08:26;;;;;;;19.55;17.52;;;14.20;50.20;;;;;;6132538;29;20390;-85
2021/03/08 11:11:31;;;;;;;23.38;18.25;;;14.40;53.70;;;;;;6126438;29;20059;-85
2021/03/08 11:14:54;;;;;;;22.42;17.65;;;14.20;50.50;;;;;;6103253;29;20027;-86
2021/03/08 11:17:55;;;;;;;;;;;14.40;50.30;;;;;;6116570;29;20027;-85
2021/03/08 11:20:55;;;;;;;21.42;17.40;;;14.10;68.70;;;;;;6147071;29;19921;-87
2021/03/08 11:24:14;;;;;;;21.17;18.77;;;14.40;52.30;;;;;;6116611;29;20110;-86
2021/03/08 11:27:16;;;;;;;21.58;18.02;;;14.10;52.20;;;;;;6127628;29;20035;-87
2021/03/08 11:30:17;;;;;;;;;;;14.10;51.80;;;;;;6115713;29;20074;-85
2021/03/08 11:33:18;;;;;;;21.42;18.30;;;14.10;52.80;;;;;;6146739;29;20436;-85
2021/03/08 11:36:35;;;;;;;20.85;18.50;;;14.10;52.80;;;;;;6123764;29;20028;-86
2021/03/08 11:39:40;;;;;;;21.80;17.40;;;14.10;55.40;;;;;;6115250;29;20039;-87
2021/03/08 11:42:41;;;;;;;22.02;18.10;;;13.80;54.20;;;;;;6126081;29;20110;-85
2021/03/08 11:45:45;;;;;;;20.65;17.90;;;13.70;54.40;;;;;;6122797;29;20485;-86
2021/03/08 11:48:45;;;;;;;24.00;18.20;;;13.60;55.60;;;;;;6111273;28;20057;-90
2021/03/08 11:51:46;;;;;;;22.20;19.45;;;13.50;55.10;;;;;;6146952;28;20548;-86
2021/03/08 11:54:46;;;;;;;22.73;19.13;;;13.40;56.70;;;;;;6138600;28;20027;-86
2021/03/08 11:57:47;;;;;;;20.10;17.40;;;13.70;57.00;;;;;;6138296;28;20470;-88
2021/03/08 12:00:48;;;;;;;22.60;18.38;;;13.20;57.20;;;;;;6138516;28;20509;-86
2021/03/08 12:03:49;;;;;;;19.48;17.30;;;13.70;58.10;;;;;;6130841;28;20111;-88
2021/03/08 12:06:50;;;;;;;20.27;17.65;;;13.10;57.90;;;;;;6129949;28;20165;-90
2021/03/08 12:09:50;;;;;;;23.95;18.42;;;12.90;56.90;;;;;;6137011;28;20122;-80
2021/03/08 12:12:51;;;;;;;21.30;17.63;;;12.80;59.10;;;;;;6153866;28;20062;-86
2021/03/08 12:15:54;;;;;;;24.83;17.80;;;13.10;56.90;;;;;;6147475;28;20118;-80
2021/03/08 12:18:54;;;;;;;23.77;17.38;;;13.10;57.50;;;;;;6137802;28;20045;-84
2021/03/08 12:21:55;;;;;;;21.10;15.95;;;13.20;58.10;;;;;;6123184;28;20030;-83
2021/03/08 12:24:55;;;;;;;19.50;17.42;;;13.20;64.50;;;;;;6120755;28;20058;-82
2021/03/08 12:27:56;;;;;;;21.35;15.63;;;13.20;75.40;;;;;;6152873;28;20034;-81
2021/03/08 12:30:57;;;;;;;20.70;15.98;;;13.30;57.70;;;;;;6136763;28;20452;-84
2021/03/08 12:33:58;;;;;;;17.83;14.35;;;13.40;59.30;;;;;;6147128;28;20022;-84
2021/03/08 12:36:58;;;;;;;18.75;16.40;;;13.40;62.00;;;;;;6130680;28;20456;-81
2021/03/08 12:39:59;;;;;;;18.33;16.08;;;13.60;57.90;;;;;;6137649;28;20053;-86
2021/03/08 12:43:00;;;;;;;20.30;16.92;;;13.50;56.70;;;;;;6149331;28;20025;-84
2021/03/08 12:46:00;;;;;;;20.35;17.27;;;13.50;58.30;;;;;;6122885;28;20417;-86
2021/03/08 12:49:01;;;;;;;19.08;15.50;;;;;;;;;;6137538;28;20078;-87
2021/03/08 12:52:05;;;;;;;20.98;16.83;;;12.60;77.90;;;;;;6138855;28;20141;-89
2021/03/08 12:55:09;;;;;;;18.85;16.42;;;12.60;59.70;;;;;;6138118;28;20081;-88
2021/03/08 12:58:11;;;;;;;21.20;16.95;;;12.30;75.90;;;;;;6132221;28;20031;-88
2021/03/08 13:01:11;;;;;;;19.35;17.08;;;12.90;59.40;;;;;;6138708;28;20031;-87
2021/03/08 13:04:12;;;;;;;19.27;16.42;;;;;;;;;;6131413;28;20042;-92
2021/03/08 13:07:13;;;;;;;21.70;15.95;;;12.10;54.70;;;;;;6137648;28;20165;-89
2021/03/08 13:10:14;;;;;;;18.48;16.08;;;12.00;59.10;;;;;;6121008;28;20038;-86
2021/03/08 13:13:15;;;;;;;19.52;17.35;;;;;;;;;;6137442;28;20062;-87
2021/03/08 13:16:16;;;;;;;22.13;16.40;;;11.70;56.00;;;;;;6138455;28;20045;-88
2021/03/08 13:19:17;;;;;;;20.20;16.95;;;;;;;;;;6122239;28;20038;-87
2021/03/08 13:22:18;;;;;;;21.35;16.15;;;11.40;75.50;;;;;;6153959;28;20358;-87
2021/03/08 13:25:18;;;;;;;20.02;16.48;;;11.70;80.50;;;;;;6137850;28;20073;-87
2021/03/08 13:28:19;;;;;;;19.65;16.35;;;;;;;;;;6122043;28;20027;-87
2021/03/08 13:31:21;;;;;;;22.10;15.75;;;11.30;74.50;;;;;;6138060;28;20422;-86
2021/03/08 13:34:21;;;;;;;19.00;15.52;;;11.60;77.90;;;;;;6122219;28;20625;-88
2021/03/08 13:37:22;;;;;;;19.38;16.23;;;11.30;77.60;;;;;;6131772;28;20106;-88
2021/03/08 13:40:23;;;;;;;22.38;15.50;;;11.40;89.10;;;;;;6135044;28;20069;-86
2021/03/08 13:43:24;;;;;;;18.55;15.30;;;;;;;;;;6129003;28;20146;-88
2021/03/08 13:46:25;;;;;;;16.45;14.65;;;11.50;88.30;;;;;;6152529;28;20034;-92
2021/03/08 13:49:25;;;;;;;19.25;15.90;;;11.50;87.60;;;;;;6134672;28;20051;-87
2021/03/08 13:52:26;;;;;;;18.27;15.43;;;;;;;;;;6126393;28;20473;-89
2021/03/08 13:55:27;;;;;;;21.20;16.27;;;11.70;86.90;;;;;;6141882;28;20042;-87
2021/03/08 13:58:28;;;;;;;18.80;16.08;;;;;;;;;;6142174;28;20618;-87
2021/03/08 14:01:28;;;;;;;20.73;15.35;;;11.30;88.20;;;;;;6142142;28;20029;-87
2021/03/08 14:04:29;;;;;;;18.00;15.85;;;11.30;70.90;;;;;;6125967;28;20037;-89
2021/03/08 14:07:30;;;;;;;18.73;15.60;;;11.90;57.60;;;;;;6126630;28;20118;-88
2021/03/08 14:10:31;;;;;;;21.40;16.77;;;;;;;;;;6133849;28;20037;-91
2021/03/08 14:13:31;;;;;;;19.48;15.63;;;11.40;52.10;;;;;;6142199;28;20026;-90
2021/03/08 14:16:32;;;;;;;19.88;15.65;;;;;;;;;;6125882;28;20112;-89
2021/03/08 14:19:33;;;;;;;19.90;15.68;;;11.30;53.10;;;;;;6142250;28;20043;-88
2021/03/08 14:22:34;;;;;;;18.88;15.90;;;11.20;57.00;;;;;;6126737;28;20038;-86
2021/03/08 14:25:35;;;;;;;20.38;15.20;;;;;;;;;;6125961;28;20121;-88
2021/03/08 14:28:36;;;;;;;18.77;15.50;;;11.10;53.70;;;;;;6157824;28;20351;-86
2021/03/08 14:31:37;;;;;;;17.92;14.82;;;;;;;;;;6125396;28;20034;-87
2021/03/08 14:34:37;;;;;;;19.35;16.15;;;10.90;52.90;;;;;;6141213;28;20023;-87
2021/03/08 14:37:38;;;;;;;16.42;14.52;;;10.80;72.80;;;;;;6124886;28;20039;-87
2021/03/08 14:40:39;;;;;;;19.77;15.82;;;;;;;;;;6124980;28;20066;-89
2021/03/08 14:43:40;;;;;;;20.17;15.88;;;10.70;74.20;;;;;;6140839;28;20034;-87
2021/03/08 14:46:41;;;;;;;18.77;14.88;;;;;;;;;;6137840;28;20065;-86
2021/03/08 14:49:41;;;;;;;19.90;14.95;;;10.80;53.60;;;;;;6132248;29;20514;-87
2021/03/08 14:52:42;;;;;;;18.80;15.73;;;;;;;;;;6112912;29;20078;-86
2021/03/08 14:55:43;;;;;;;19.27;15.73;;;;;;;;;;6141608;29;20038;-88
2021/03/08 14:58:45;;;;;;;19.58;14.88;;;10.50;54.30;;;;;;6132757;29;20122;-87
2021/03/08 15:01:45;;;;;;;21.05;15.18;;;10.60;57.40;;;;;;6106217;29;20597;-90
2021/03/08 15:04:46;;;;;;;18.88;15.13;;;10.50;70.90;;;;;;6102152;29;20191;-85
2021/03/08 15:07:47;;;;;;;23.27;14.27;;;10.50;59.20;;;;;;6129571;29;20462;-91
2021/03/08 15:10:48;;;;;;;17.67;14.90;;;;;;;;;;6120317;29;20114;-86
2021/03/08 15:13:48;;;;;;;21.98;15.82;;;10.70;70.20;;;;;;6132660;29;20358;-91
2021/03/08 15:16:49;;;;;;;19.70;15.05;;;10.60;74.10;;;;;;6122175;29;20032;-89
2021/03/08 15:19:50;;;;;;;16.98;14.05;;;10.60;57.80;;;;;;6115703;29;20039;-86
2021/03/08 15:22:51;;;;;;;18.75;15.20;;;10.60;58.70;;;;;;6114890;29;20497;-87
2021/03/08 15:25:51;;;;;;;18.20;14.63;;;10.60;59.00;;;;;;6115815;29;20054;-88
2021/03/08 15:28:52;;;;;;;18.75;13.80;;;10.50;76.40;;;;;;6130998;29;20078;-83
2021/03/08 15:31:53;;;;;;;18.50;14.15;;;10.40;60.50;;;;;;6103886;29;20035;-86
2021/03/08 15:34:54;;;;;;;20.15;14.55;;;10.20;60.80;;;;;;6115812;29;20031;-88
2021/03/08 15:37:55;;;;;;;17.10;13.82;;;10.10;76.30;;;;;;6107606;29;20058;-87
2021/03/08 15:40:55;;;;;;;19.95;14.75;;;10.00;60.50;;;;;;6115838;29;20031;-89
2021/03/08 15:43:56;;;;;;;18.67;14.65;;;;;;;;;;6100158;29;20027;-86
2021/03/08 15:46:57;;;;;;;17.05;13.73;;;9.80;56.70;;;;;;6131572;29;20097;-85
2021/03/08 15:49:58;;;;;;;16.92;13.20;;;9.90;62.10;;;;;;6133277;28;20047;-88
2021/03/08 15:52:59;;;;;;;19.45;14.02;;;;;;;;;;6138297;28;20405;-88
2021/03/08 15:55:59;;;;;;;17.17;12.50;;;9.60;57.60;;;;;;6135709;28;20041;-84
2021/03/08 15:59:00;;;;;;;16.58;12.85;;;;;;;;;;6135433;28;20034;-84
2021/03/08 16:02:01;;;;;;;20.27;13.65;;;9.40;58.20;;;;;;6137881;28;20117;-82
2021/03/08 16:05:03;;;;;;;16.65;13.13;;;9.30;63.10;;;;;;6137413;28;20073;-83